Ischia Jet — IOBI — position and weather

sailwx.info

Track history (hours):
 
Tides and Currents Weather Stations Pressure Air Temp Water Temp Dewpoint Dewpoint Depression Visibility Wind Speed Wind Dir Waves Ship Positions

Ischia Jet

Last reported at 2017-Apr-03 16:45 UTC. Time now 2017-Apr-25 10:26 UTC.
Position N 40°42' E 014°29'.
Warning: this ship's position is 21 days out of date.

Length 42 m; draft 1.2 m.

Type: Passenger vessel. MMSI: 247048700.

Date/timePositionNaut miles runAvg speedWind from/ knotsBaromVisibWave heightAir tempDewpointWater temp
2017-Apr-03 16:45N 40°42' E 014°29'311.7
2017-Apr-03 16:30N 40°41' E 014°25'11 0.2
2017-Apr-01 15:23N 40°50' E 014°16'921.0
2017-Apr-01 14:56N 40°41' E 014°17'4 1.4
2017-Apr-01 12:17N 40°38' E 014°20'4 2.8
2017-Apr-01 10:46N 40°35' E 014°16'623.9
2017-Apr-01 10:30N 40°41' E 014°18'9 7.7
2017-Apr-01 09:18N 40°50' E 014°16'0 0.0
2017-Mar-31 14:51N 40°50' E 014°16'0 0.0
2017-Mar-31 13:57N 40°50' E 014°16'0 0.0
2017-Mar-31 13:15N 40°50' E 014°16'0 0.0
2017-Mar-31 10:56N 40°50' E 014°16'7 6.3
2017-Mar-31 09:51N 40°44' E 014°20'  
Track history (hours):
 
Tides and Currents Weather Stations Pressure Air Temp Water Temp Dewpoint Dewpoint Depression Visibility Wind Speed Wind Dir Waves Ship Positions

Ischia Jet

Last reported at 2017-Apr-03 16:45 UTC. Time now 2017-Apr-25 10:26 UTC.
Position N 40°42' E 014°29'.
Warning: this ship's position is 21 days out of date.

Length 42 m; draft 1.2 m.

Type: Passenger vessel. MMSI: 247048700.

Date/timePositionNaut miles runAvg speedWind from/ knotsBaromVisibWave heightAir tempDewpointWater temp
2017-Apr-03 16:45N 40°42' E 014°29'311.7
2017-Apr-03 16:30N 40°41' E 014°25'11 0.2
2017-Apr-01 15:23N 40°50' E 014°16'921.0
2017-Apr-01 14:56N 40°41' E 014°17'4 1.4
2017-Apr-01 12:17N 40°38' E 014°20'4 2.8
2017-Apr-01 10:46N 40°35' E 014°16'623.9
2017-Apr-01 10:30N 40°41' E 014°18'9 7.7
2017-Apr-01 09:18N 40°50' E 014°16'0 0.0
2017-Mar-31 14:51N 40°50' E 014°16'0 0.0
2017-Mar-31 13:57N 40°50' E 014°16'0 0.0
2017-Mar-31 13:15N 40°50' E 014°16'0 0.0
2017-Mar-31 10:56N 40°50' E 014°16'7 6.3
2017-Mar-31 09:51N 40°44' E 014°20'  

Dump ship's entire track history